sensor_id;sensor_type;location;lat;lon;timestamp;pressure;altitude;pressure_sealevel;temperature;humidity
24486;BME280;13449;49.374;8.584;2022-12-18T00:01:20;101916.50;;;-7.01;100.00
24486;BME280;13449;49.374;8.584;2022-12-18T00:03:47;101924.56;;;-7.06;100.00
24486;BME280;13449;49.374;8.584;2022-12-18T00:06:14;101908.69;;;-7.06;100.00
24486;BME280;13449;49.374;8.584;2022-12-18T00:08:44;101897.91;;;-7.00;100.00
24486;BME280;13449;49.374;8.584;2022-12-18T00:11:14;101901.47;;;-7.01;100.00
24486;BME280;13449;49.374;8.584;2022-12-18T00:13:41;101902.34;;;-7.00;100.00
24486;BME280;13449;49.374;8.584;2022-12-18T00:16:16;101902.44;;;-7.05;100.00
24486;BME280;13449;49.374;8.584;2022-12-18T00:18:45;101907.00;;;-7.10;100.00
24486;BME280;13449;49.374;8.584;2022-12-18T00:21:13;101908.59;;;-7.03;100.00
24486;BME280;13449;49.374;8.584;2022-12-18T00:23:43;101913.97;;;-7.06;100.00
24486;BME280;13449;49.374;8.584;2022-12-18T00:26:16;101915.63;;;-7.02;100.00
24486;BME280;13449;49.374;8.584;2022-12-18T00:28:49;101910.19;;;-6.97;100.00
24486;BME280;13449;49.374;8.584;2022-12-18T00:31:19;101902.25;;;-6.97;100.00
24486;BME280;13449;49.374;8.584;2022-12-18T00:33:48;101901.44;;;-6.99;100.00
24486;BME280;13449;49.374;8.584;2022-12-18T00:36:22;101903.38;;;-7.06;100.00
24486;BME280;13449;49.374;8.584;2022-12-18T00:38:49;101908.59;;;-7.03;100.00
24486;BME280;13449;49.374;8.584;2022-12-18T00:41:17;101918.16;;;-6.97;100.00
24486;BME280;13449;49.374;8.584;2022-12-18T00:44:06;101905.72;;;-6.94;100.00
24486;BME280;13449;49.374;8.584;2022-12-18T00:46:32;101904.97;;;-6.99;100.00
24486;BME280;13449;49.374;8.584;2022-12-18T00:48:59;101908.56;;;-7.01;100.00
24486;BME280;13449;49.374;8.584;2022-12-18T00:51:26;101912.78;;;-6.94;100.00
24486;BME280;13449;49.374;8.584;2022-12-18T00:53:53;101926.84;;;-6.91;100.00
24486;BME280;13449;49.374;8.584;2022-12-18T00:56:24;101918.03;;;-6.93;100.00
24486;BME280;13449;49.374;8.584;2022-12-18T00:58:50;101924.19;;;-6.91;100.00
24486;BME280;13449;49.374;8.584;2022-12-18T01:01:17;101926.84;;;-6.91;100.00
24486;BME280;13449;49.374;8.584;2022-12-18T01:03:44;101920.53;;;-6.87;100.00
24486;BME280;13449;49.374;8.584;2022-12-18T01:06:14;101920.94;;;-6.69;100.00
24486;BME280;13449;49.374;8.584;2022-12-18T01:08:41;101914.88;;;-6.74;100.00
24486;BME280;13449;49.374;8.584;2022-12-18T01:11:15;101912.19;;;-6.71;100.00
24486;BME280;13449;49.374;8.584;2022-12-18T01:13:43;101920.13;;;-6.71;100.00
24486;BME280;13449;49.374;8.584;2022-12-18T01:16:14;101911.25;;;-6.70;100.00
24486;BME280;13449;49.374;8.584;2022-12-18T01:18:42;101920.13;;;-6.71;100.00
24486;BME280;13449;49.374;8.584;2022-12-18T01:21:11;101909.47;;;-6.70;100.00
24486;BME280;13449;49.374;8.584;2022-12-18T01:23:40;101905.94;;;-6.70;100.00
24486;BME280;13449;49.374;8.584;2022-12-18T01:26:10;101902.38;;;-6.69;100.00
24486;BME280;13449;49.374;8.584;2022-12-18T01:28:38;101914.56;;;-6.62;100.00
24486;BME280;13449;49.374;8.584;2022-12-18T01:31:33;101911.13;;;-6.66;100.00
24486;BME280;13449;49.374;8.584;2022-12-18T01:34:02;101912.00;;;-6.65;100.00
24486;BME280;13449;49.374;8.584;2022-12-18T01:36:35;101907.50;;;-6.63;100.00
24486;BME280;13449;49.374;8.584;2022-12-18T01:39:11;101917.28;;;-6.64;100.00
24486;BME280;13449;49.374;8.584;2022-12-18T01:41:38;101917.47;;;-6.71;100.00
24486;BME280;13449;49.374;8.584;2022-12-18T01:47:20;101912.88;;;-6.65;100.00
24486;BME280;13449;49.374;8.584;2022-12-18T01:49:48;101907.59;;;-6.66;100.00
24486;BME280;13449;49.374;8.584;2022-12-18T01:52:15;101905.81;;;-6.66;100.00
24486;BME280;13449;49.374;8.584;2022-12-18T01:54:44;101905.69;;;-6.61;100.00
24486;BME280;13449;49.374;8.584;2022-12-18T01:57:11;101900.50;;;-6.66;100.00
24486;BME280;13449;49.374;8.584;2022-12-18T01:59:38;101916.22;;;-6.58;100.00
24486;BME280;13449;49.374;8.584;2022-12-18T02:02:07;101926.91;;;-6.61;100.00
24486;BME280;13449;49.374;8.584;2022-12-18T02:04:34;101920.81;;;-6.65;100.00
24486;BME280;13449;49.374;8.584;2022-12-18T02:07:03;101912.03;;;-6.67;100.00
24486;BME280;13449;49.374;8.584;2022-12-18T02:09:38;101908.59;;;-6.70;100.00
24486;BME280;13449;49.374;8.584;2022-12-18T02:12:16;101901.56;;;-6.71;100.00
24486;BME280;13449;49.374;8.584;2022-12-18T02:15:09;101899.72;;;-6.69;100.00
24486;BME280;13449;49.374;8.584;2022-12-18T02:17:45;101909.56;;;-6.73;100.00
24486;BME280;13449;49.374;8.584;2022-12-18T02:20:20;101915.88;;;-6.78;100.00
24486;BME280;13449;49.374;8.584;2022-12-18T02:28:46;101932.25;;;-6.63;100.00
24486;BME280;13449;49.374;8.584;2022-12-18T02:31:19;101941.34;;;-6.71;100.00
24486;BME280;13449;49.374;8.584;2022-12-18T02:33:49;101939.16;;;-6.90;100.00
24486;BME280;13449;49.374;8.584;2022-12-18T02:36:17;101927.41;;;-6.79;100.00
24486;BME280;13449;49.374;8.584;2022-12-18T02:38:45;101933.63;;;-6.80;100.00
24486;BME280;13449;49.374;8.584;2022-12-18T02:41:14;101931.19;;;-6.90;100.00
24486;BME280;13449;49.374;8.584;2022-12-18T02:43:47;101926.16;;;-6.99;100.00
24486;BME280;13449;49.374;8.584;2022-12-18T02:46:44;101918.88;;;-6.91;100.00
24486;BME280;13449;49.374;8.584;2022-12-18T02:49:30;101902.00;;;-6.87;100.00
24486;BME280;13449;49.374;8.584;2022-12-18T02:57:33;101898.22;;;-7.12;100.00
24486;BME280;13449;49.374;8.584;2022-12-18T03:00:10;101889.38;;;-7.11;100.00
24486;BME280;13449;49.374;8.584;2022-12-18T03:02:53;101904.38;;;-7.11;100.00
24486;BME280;13449;49.374;8.584;2022-12-18T03:05:30;101906.13;;;-7.09;100.00
24486;BME280;13449;49.374;8.584;2022-12-18T03:08:03;101913.09;;;-7.06;100.00
24486;BME280;13449;49.374;8.584;2022-12-18T03:10:35;101915.88;;;-7.11;100.00
24486;BME280;13449;49.374;8.584;2022-12-18T03:13:12;101913.91;;;-7.03;100.00
24486;BME280;13449;49.374;8.584;2022-12-18T03:15:44;101909.81;;;-7.16;100.00
24486;BME280;13449;49.374;8.584;2022-12-18T03:18:29;101921.34;;;-7.17;100.00
24486;BME280;13449;49.374;8.584;2022-12-18T03:20:59;101923.38;;;-7.28;100.00
24486;BME280;13449;49.374;8.584;2022-12-18T03:23:29;101909.97;;;-7.22;100.00
24486;BME280;13449;49.374;8.584;2022-12-18T03:26:07;101888.78;;;-7.22;100.00
24486;BME280;13449;49.374;8.584;2022-12-18T03:28:39;101893.41;;;-7.30;100.00
24486;BME280;13449;49.374;8.584;2022-12-18T03:31:10;101901.03;;;-7.18;100.00
24486;BME280;13449;49.374;8.584;2022-12-18T03:33:42;101929.50;;;-7.26;100.00
24486;BME280;13449;49.374;8.584;2022-12-18T03:36:11;101933.91;;;-7.25;100.00
24486;BME280;13449;49.374;8.584;2022-12-18T03:38:38;101927.94;;;-7.35;100.00
24486;BME280;13449;49.374;8.584;2022-12-18T03:43:58;101923.00;;;-7.48;100.00
24486;BME280;13449;49.374;8.584;2022-12-18T03:46:31;101919.56;;;-7.53;100.00
24486;BME280;13449;49.374;8.584;2022-12-18T03:49:04;101920.44;;;-7.53;100.00
24486;BME280;13449;49.374;8.584;2022-12-18T03:51:47;101926.69;;;-7.55;100.00
24486;BME280;13449;49.374;8.584;2022-12-18T03:54:14;101916.19;;;-7.58;100.00
24486;BME280;13449;49.374;8.584;2022-12-18T03:56:46;101926.06;;;-7.66;100.00
24486;BME280;13449;49.374;8.584;2022-12-18T03:59:16;101923.31;;;-7.62;100.00
24486;BME280;13449;49.374;8.584;2022-12-18T04:01:49;101917.16;;;-7.62;100.00
24486;BME280;13449;49.374;8.584;2022-12-18T04:04:19;101917.28;;;-7.68;100.00
24486;BME280;13449;49.374;8.584;2022-12-18T04:06:47;101919.03;;;-7.67;100.00
24486;BME280;13449;49.374;8.584;2022-12-18T04:09:15;101922.56;;;-7.68;100.00
24486;BME280;13449;49.374;8.584;2022-12-18T04:11:42;101922.28;;;-7.56;100.00
24486;BME280;13449;49.374;8.584;2022-12-18T04:14:11;101918.94;;;-7.63;100.00
24486;BME280;13449;49.374;8.584;2022-12-18T04:16:46;101924.22;;;-7.63;100.00
24486;BME280;13449;49.374;8.584;2022-12-18T04:19:12;101914.59;;;-7.67;100.00
24486;BME280;13449;49.374;8.584;2022-12-18T04:21:39;101910.28;;;-7.69;100.00
24486;BME280;13449;49.374;8.584;2022-12-18T04:24:08;101909.28;;;-7.65;100.00
24486;BME280;13449;49.374;8.584;2022-12-18T04:26:35;101911.19;;;-7.72;100.00
24486;BME280;13449;49.374;8.584;2022-12-18T04:29:01;101913.88;;;-7.73;100.00
24486;BME280;13449;49.374;8.584;2022-12-18T04:31:27;101905.06;;;-7.72;100.00
24486;BME280;13449;49.374;8.584;2022-12-18T04:33:54;101907.81;;;-7.78;100.00
24486;BME280;13449;49.374;8.584;2022-12-18T04:36:20;101904.34;;;-7.80;100.00
24486;BME280;13449;49.374;8.584;2022-12-18T04:38:47;101919.25;;;-7.76;100.00
24486;BME280;13449;49.374;8.584;2022-12-18T04:41:14;101916.03;;;-7.91;100.00
24486;BME280;13449;49.374;8.584;2022-12-18T04:43:45;101904.34;;;-7.80;100.00
24486;BME280;13449;49.374;8.584;2022-12-18T04:46:12;101908.78;;;-7.83;100.00
24486;BME280;13449;49.374;8.584;2022-12-18T04:48:39;101900.09;;;-7.88;100.00
24486;BME280;13449;49.374;8.584;2022-12-18T04:51:07;101903.81;;;-7.96;100.00
24486;BME280;13449;49.374;8.584;2022-12-18T04:53:34;101900.38;;;-8.00;100.00
24486;BME280;13449;49.374;8.584;2022-12-18T04:56:09;101904.81;;;-8.02;100.00
24486;BME280;13449;49.374;8.584;2022-12-18T04:58:43;101915.19;;;-7.91;100.00
24486;BME280;13449;49.374;8.584;2022-12-18T05:01:14;101919.69;;;-7.96;100.00
24486;BME280;13449;49.374;8.584;2022-12-18T05:03:43;101917.94;;;-7.96;100.00
24486;BME280;13449;49.374;8.584;2022-12-18T05:06:10;101927.53;;;-7.92;100.00
24486;BME280;13449;49.374;8.584;2022-12-18T05:08:37;101932.84;;;-7.92;100.00
24486;BME280;13449;49.374;8.584;2022-12-18T05:11:06;101924.25;;;-8.03;100.00
24486;BME280;13449;49.374;8.584;2022-12-18T05:13:34;101933.13;;;-8.05;100.00
24486;BME280;13449;49.374;8.584;2022-12-18T05:16:05;101936.81;;;-8.12;100.00
24486;BME280;13449;49.374;8.584;2022-12-18T05:18:34;101935.03;;;-8.12;100.00
24486;BME280;13449;49.374;8.584;2022-12-18T05:21:01;101933.13;;;-8.05;100.00
24486;BME280;13449;49.374;8.584;2022-12-18T05:23:28;101930.44;;;-8.04;100.00
24486;BME280;13449;49.374;8.584;2022-12-18T05:26:00;101934.94;;;-8.07;100.00
24486;BME280;13449;49.374;8.584;2022-12-18T05:28:29;101948.28;;;-8.13;100.00
24486;BME280;13449;49.374;8.584;2022-12-18T05:30:57;101944.94;;;-8.21;100.00
24486;BME280;13449;49.374;8.584;2022-12-18T05:33:26;101933.34;;;-8.16;100.00
24486;BME280;13449;49.374;8.584;2022-12-18T05:36:01;101928.13;;;-8.17;100.00
24486;BME280;13449;49.374;8.584;2022-12-18T05:38:29;101935.03;;;-8.12;100.00
24486;BME280;13449;49.374;8.584;2022-12-18T05:40:58;101932.38;;;-8.12;100.00
24486;BME280;13449;49.374;8.584;2022-12-18T05:43:26;101928.03;;;-8.14;100.00
24486;BME280;13449;49.374;8.584;2022-12-18T05:45:57;101926.22;;;-8.12;100.00
24486;BME280;13449;49.374;8.584;2022-12-18T05:48:24;101927.09;;;-8.12;100.00
24486;BME280;13449;49.374;8.584;2022-12-18T05:50:51;101921.97;;;-8.21;100.00
24486;BME280;13449;49.374;8.584;2022-12-18T05:53:20;101916.75;;;-8.24;100.00
24486;BME280;13449;49.374;8.584;2022-12-18T05:55:49;101916.66;;;-8.18;100.00
24486;BME280;13449;49.374;8.584;2022-12-18T05:58:16;101907.88;;;-8.20;100.00
24486;BME280;13449;49.374;8.584;2022-12-18T06:00:45;101912.28;;;-8.20;100.00
24486;BME280;13449;49.374;8.584;2022-12-18T06:03:12;101921.22;;;-8.26;100.00
24486;BME280;13449;49.374;8.584;2022-12-18T06:05:42;101925.50;;;-8.19;100.00
24486;BME280;13449;49.374;8.584;2022-12-18T06:08:12;101922.81;;;-8.17;100.00
24486;BME280;13449;49.374;8.584;2022-12-18T06:10:40;101926.53;;;-8.26;100.00
24486;BME280;13449;49.374;8.584;2022-12-18T06:13:07;101928.19;;;-8.22;100.00
24486;BME280;13449;49.374;8.584;2022-12-18T06:15:40;101932.69;;;-8.25;100.00
24486;BME280;13449;49.374;8.584;2022-12-18T06:18:09;101931.94;;;-8.32;100.00
24486;BME280;13449;49.374;8.584;2022-12-18T06:20:37;101940.81;;;-8.33;100.00
24486;BME280;13449;49.374;8.584;2022-12-18T06:23:06;101945.44;;;-8.44;100.00
24486;BME280;13449;49.374;8.584;2022-12-18T06:25:36;101949.78;;;-8.40;100.00
24486;BME280;13449;49.374;8.584;2022-12-18T06:28:03;101948.91;;;-8.41;100.00
24486;BME280;13449;49.374;8.584;2022-12-18T06:30:30;101949.72;;;-8.37;100.00
24486;BME280;13449;49.374;8.584;2022-12-18T06:32:56;101949.78;;;-8.40;100.00
24486;BME280;13449;49.374;8.584;2022-12-18T06:35:23;101954.28;;;-8.47;100.00
24486;BME280;13449;49.374;8.584;2022-12-18T06:37:49;101953.41;;;-8.46;100.00
24486;BME280;13449;49.374;8.584;2022-12-18T06:40:16;101949.94;;;-8.48;100.00
24486;BME280;13449;49.374;8.584;2022-12-18T06:42:44;101948.03;;;-8.41;100.00
24486;BME280;13449;49.374;8.584;2022-12-18T06:45:10;101943.75;;;-8.48;100.00
24486;BME280;13449;49.374;8.584;2022-12-18T06:47:39;101947.06;;;-8.37;100.00
24486;BME280;13449;49.374;8.584;2022-12-18T06:50:06;101950.72;;;-8.44;100.00
24486;BME280;13449;49.374;8.584;2022-12-18T06:52:33;101968.44;;;-8.48;100.00
24486;BME280;13449;49.374;8.584;2022-12-18T06:55:02;101972.13;;;-8.56;100.00
24486;BME280;13449;49.374;8.584;2022-12-18T06:57:32;101968.47;;;-8.51;100.00
24486;BME280;13449;49.374;8.584;2022-12-18T06:59:58;101967.91;;;-8.66;100.00
24486;BME280;13449;49.374;8.584;2022-12-18T07:02:25;101978.56;;;-8.71;100.00
24486;BME280;13449;49.374;8.584;2022-12-18T07:04:54;101967.06;;;-8.68;100.00
24486;BME280;13449;49.374;8.584;2022-12-18T07:07:23;101967.78;;;-8.62;100.00
24486;BME280;13449;49.374;8.584;2022-12-18T07:09:52;101976.69;;;-8.66;100.00
24486;BME280;13449;49.374;8.584;2022-12-18T07:12:18;101977.53;;;-8.62;100.00
24486;BME280;13449;49.374;8.584;2022-12-18T07:14:45;101978.22;;;-8.54;100.00
24486;BME280;13449;49.374;8.584;2022-12-18T07:17:11;101994.16;;;-8.57;100.00
24486;BME280;13449;49.374;8.584;2022-12-18T07:19:37;101988.78;;;-8.51;100.00
24486;BME280;13449;49.374;8.584;2022-12-18T07:22:04;101991.22;;;-8.42;100.00
24486;BME280;13449;49.374;8.584;2022-12-18T07:24:33;101990.47;;;-8.49;100.00
24486;BME280;13449;49.374;8.584;2022-12-18T07:27:03;101993.03;;;-8.44;100.00
24486;BME280;13449;49.374;8.584;2022-12-18T07:29:29;101991.13;;;-8.36;100.00
24486;BME280;13449;49.374;8.584;2022-12-18T07:31:56;101999.25;;;-8.47;100.00
24486;BME280;13449;49.374;8.584;2022-12-18T07:34:22;102002.75;;;-8.45;100.00
24486;BME280;13449;49.374;8.584;2022-12-18T07:36:51;102008.78;;;-8.38;100.00
24486;BME280;13449;49.374;8.584;2022-12-18T07:39:18;102001.06;;;-8.49;100.00
24486;BME280;13449;49.374;8.584;2022-12-18T07:41:44;101997.44;;;-8.45;100.00
24486;BME280;13449;49.374;8.584;2022-12-18T07:44:30;102001.88;;;-8.45;100.00
24486;BME280;13449;49.374;8.584;2022-12-18T07:46:57;101995.63;;;-8.41;100.00
24486;BME280;13449;49.374;8.584;2022-12-18T07:49:23;102000.03;;;-8.43;100.00
24486;BME280;13449;49.374;8.584;2022-12-18T07:51:50;101999.09;;;-8.39;100.00
24486;BME280;13449;49.374;8.584;2022-12-18T07:54:16;101994.53;;;-8.31;100.00
24486;BME280;13449;49.374;8.584;2022-12-18T07:56:43;101993.84;;;-8.41;100.00
24486;BME280;13449;49.374;8.584;2022-12-18T07:59:10;102003.41;;;-8.35;100.00
24486;BME280;13449;49.374;8.584;2022-12-18T08:01:36;102005.78;;;-8.21;100.00
24486;BME280;13449;49.374;8.584;2022-12-18T08:04:03;102003.19;;;-8.24;100.00
24486;BME280;13449;49.374;8.584;2022-12-18T08:06:29;101997.06;;;-8.26;100.00
24486;BME280;13449;49.374;8.584;2022-12-18T08:08:56;101999.00;;;-8.33;100.00
24486;BME280;13449;49.374;8.584;2022-12-18T08:11:24;101998.94;;;-8.32;100.00
24486;BME280;13449;49.374;8.584;2022-12-18T08:13:52;101996.91;;;-8.19;100.00
24486;BME280;13449;49.374;8.584;2022-12-18T08:16:19;101996.91;;;-8.20;100.00
24486;BME280;13449;49.374;8.584;2022-12-18T08:18:46;101997.84;;;-8.21;100.00
24486;BME280;13449;49.374;8.584;2022-12-18T08:21:17;101994.94;;;-8.09;100.00
24486;BME280;13449;49.374;8.584;2022-12-18T08:23:46;101996.75;;;-8.11;100.00
24486;BME280;13449;49.374;8.584;2022-12-18T08:26:14;101996.47;;;-7.98;100.00
24486;BME280;13449;49.374;8.584;2022-12-18T08:28:41;102003.41;;;-7.92;100.00
24486;BME280;13449;49.374;8.584;2022-12-18T08:31:08;101999.03;;;-7.95;100.00
24486;BME280;13449;49.374;8.584;2022-12-18T08:33:36;102004.94;;;-7.82;100.00
24486;BME280;13449;49.374;8.584;2022-12-18T08:36:05;102000.38;;;-7.75;100.00
24486;BME280;13449;49.374;8.584;2022-12-18T08:38:34;101987.88;;;-7.30;100.00
24486;BME280;13449;49.374;8.584;2022-12-18T08:41:02;101981.09;;;-7.05;100.00
24486;BME280;13449;49.374;8.584;2022-12-18T08:43:29;101968.66;;;-6.68;100.00
24486;BME280;13449;49.374;8.584;2022-12-18T08:46:15;101964.88;;;-6.27;100.00
24486;BME280;13449;49.374;8.584;2022-12-18T08:48:44;101966.44;;;-6.20;100.00
24486;BME280;13449;49.374;8.584;2022-12-18T08:51:10;101972.94;;;-6.01;100.00
24486;BME280;13449;49.374;8.584;2022-12-18T08:53:38;101962.81;;;-5.88;100.00
24486;BME280;13449;49.374;8.584;2022-12-18T08:56:06;101954.69;;;-5.83;100.00
24486;BME280;13449;49.374;8.584;2022-12-18T08:58:32;101948.16;;;-5.73;100.00
24486;BME280;13449;49.374;8.584;2022-12-18T09:01:07;101940.84;;;-5.65;100.00
24486;BME280;13449;49.374;8.584;2022-12-18T09:03:35;101932.72;;;-5.61;100.00
24486;BME280;13449;49.374;8.584;2022-12-18T09:06:02;101935.06;;;-5.50;100.00
24486;BME280;13449;49.374;8.584;2022-12-18T09:08:36;101936.59;;;-5.43;100.00
24486;BME280;13449;49.374;8.584;2022-12-18T09:11:04;101933.84;;;-5.40;100.00
24486;BME280;13449;49.374;8.584;2022-12-18T09:13:31;101928.38;;;-5.36;99.96
24486;BME280;13449;49.374;8.584;2022-12-18T09:15:58;101928.28;;;-5.32;100.00
24486;BME280;13449;49.374;8.584;2022-12-18T09:18:24;101945.78;;;-5.25;99.35
24486;BME280;13449;49.374;8.584;2022-12-18T09:20:51;101933.38;;;-5.25;99.15
24486;BME280;13449;49.374;8.584;2022-12-18T09:23:20;101936.72;;;-5.20;99.34
24486;BME280;13449;49.374;8.584;2022-12-18T09:25:47;101930.38;;;-5.16;97.57
24486;BME280;13449;49.374;8.584;2022-12-18T09:28:16;101932.91;;;-5.11;97.74
24486;BME280;13449;49.374;8.584;2022-12-18T09:30:46;101928.13;;;-5.02;97.67
24486;BME280;13449;49.374;8.584;2022-12-18T09:33:16;101930.84;;;-5.03;98.23
24486;BME280;13449;49.374;8.584;2022-12-18T09:35:44;101948.19;;;-4.92;97.38
24486;BME280;13449;49.374;8.584;2022-12-18T09:38:16;101954.09;;;-4.83;97.18
24486;BME280;13449;49.374;8.584;2022-12-18T09:40:50;101960.97;;;-4.76;97.67
24486;BME280;13449;49.374;8.584;2022-12-18T09:43:24;101968.84;;;-4.73;95.94
24486;BME280;13449;49.374;8.584;2022-12-18T09:45:59;101962.59;;;-4.72;96.23
24486;BME280;13449;49.374;8.584;2022-12-18T09:48:32;101967.72;;;-4.68;95.21
24486;BME280;13449;49.374;8.584;2022-12-18T09:51:12;101970.13;;;-4.60;94.59
24486;BME280;13449;49.374;8.584;2022-12-18T09:53:45;101984.13;;;-4.54;95.10
24486;BME280;13449;49.374;8.584;2022-12-18T09:56:17;101998.06;;;-4.47;95.13
24486;BME280;13449;49.374;8.584;2022-12-18T09:59:14;102001.50;;;-4.44;94.15
24486;BME280;13449;49.374;8.584;2022-12-18T10:01:34;101999.47;;;-4.37;93.84
24486;BME280;13449;49.374;8.584;2022-12-18T10:04:09;102003.66;;;-4.30;93.57
24486;BME280;13449;49.374;8.584;2022-12-18T10:06:46;101998.22;;;-4.27;93.68
24486;BME280;13449;49.374;8.584;2022-12-18T10:09:24;101991.81;;;-4.21;93.31
24486;BME280;13449;49.374;8.584;2022-12-18T10:12:08;101989.97;;;-4.19;92.68
24486;BME280;13449;49.374;8.584;2022-12-18T10:14:54;101970.28;;;-4.15;93.15
24486;BME280;13449;49.374;8.584;2022-12-18T10:20:31;101974.41;;;-4.07;92.04
24486;BME280;13449;49.374;8.584;2022-12-18T10:23:26;101979.63;;;-4.04;90.73
24486;BME280;13449;49.374;8.584;2022-12-18T10:26:08;101991.03;;;-4.00;90.86
24486;BME280;13449;49.374;8.584;2022-12-18T10:28:37;101986.34;;;-3.94;90.89
24486;BME280;13449;49.374;8.584;2022-12-18T10:31:10;101990.63;;;-3.90;91.24
24486;BME280;13449;49.374;8.584;2022-12-18T10:33:40;101987.78;;;-3.85;89.95
24486;BME280;13449;49.374;8.584;2022-12-18T10:36:09;101978.84;;;-3.82;89.64
24486;BME280;13449;49.374;8.584;2022-12-18T10:38:36;101974.06;;;-3.74;89.08
24486;BME280;13449;49.374;8.584;2022-12-18T10:41:05;101972.88;;;-3.67;89.05
24486;BME280;13449;49.374;8.584;2022-12-18T10:43:36;101960.22;;;-3.61;89.83
24486;BME280;13449;49.374;8.584;2022-12-18T10:51:09;101946.38;;;-3.49;86.95
24486;BME280;13449;49.374;8.584;2022-12-18T10:53:40;101950.75;;;-3.46;87.45
24486;BME280;13449;49.374;8.584;2022-12-18T10:56:09;101952.94;;;-3.34;88.63
24486;BME280;13449;49.374;8.584;2022-12-18T10:58:37;101956.53;;;-3.35;87.59
24486;BME280;13449;49.374;8.584;2022-12-18T11:01:06;101958.81;;;-3.26;87.59
24486;BME280;13449;49.374;8.584;2022-12-18T11:06:19;101959.91;;;-3.10;88.07
24486;BME280;13449;49.374;8.584;2022-12-18T11:09:20;101968.66;;;-3.06;86.54
24486;BME280;13449;49.374;8.584;2022-12-18T11:11:51;101958.25;;;-3.12;85.85
24486;BME280;13449;49.374;8.584;2022-12-18T11:14:34;101965.88;;;-3.03;87.24
24486;BME280;13449;49.374;8.584;2022-12-18T11:20:04;101978.34;;;-3.04;86.48
24486;BME280;13449;49.374;8.584;2022-12-18T11:22:36;101967.88;;;-3.08;85.99
24486;BME280;13449;49.374;8.584;2022-12-18T11:25:25;101967.00;;;-3.09;85.37
24486;BME280;13449;49.374;8.584;2022-12-18T11:31:22;101962.84;;;-2.94;85.74
24486;BME280;13449;49.374;8.584;2022-12-18T11:36:39;101956.50;;;-2.92;85.00
24486;BME280;13449;49.374;8.584;2022-12-18T11:39:31;101959.03;;;-2.88;85.44
24486;BME280;13449;49.374;8.584;2022-12-18T11:42:10;101961.59;;;-2.85;85.25
24486;BME280;13449;49.374;8.584;2022-12-18T11:45:15;101964.31;;;-2.87;84.10
24486;BME280;13449;49.374;8.584;2022-12-18T11:47:55;101953.38;;;-2.81;85.39
24486;BME280;13449;49.374;8.584;2022-12-18T11:50:53;101947.06;;;-2.78;83.76
24486;BME280;13449;49.374;8.584;2022-12-18T11:53:30;101955.84;;;-2.76;84.85
24486;BME280;13449;49.374;8.584;2022-12-18T11:56:58;101935.38;;;-2.76;84.07
24486;BME280;13449;49.374;8.584;2022-12-18T11:59:18;101930.06;;;-2.77;84.11
24486;BME280;13449;49.374;8.584;2022-12-18T12:12:28;101941.03;;;-2.43;84.24
24486;BME280;13449;49.374;8.584;2022-12-18T12:26:54;101904.03;;;-2.32;82.76
24486;BME280;13449;49.374;8.584;2022-12-18T12:30:00;101908.44;;;-2.31;82.86
24486;BME280;13449;49.374;8.584;2022-12-18T12:38:25;101924.13;;;-2.23;82.51
24486;BME280;13449;49.374;8.584;2022-12-18T12:41:05;101923.41;;;-2.27;82.33
24486;BME280;13449;49.374;8.584;2022-12-18T12:43:55;101915.25;;;-2.24;82.83
24486;BME280;13449;49.374;8.584;2022-12-18T12:46:24;101925.56;;;-2.16;81.88
24486;BME280;13449;49.374;8.584;2022-12-18T12:48:55;101911.97;;;-2.10;82.06
24486;BME280;13449;49.374;8.584;2022-12-18T12:51:28;101913.91;;;-2.14;82.19
24486;BME280;13449;49.374;8.584;2022-12-18T12:53:58;101901.19;;;-2.09;83.02
24486;BME280;13449;49.374;8.584;2022-12-18T12:56:49;101904.66;;;-2.07;82.26
24486;BME280;13449;49.374;8.584;2022-12-18T12:59:32;101895.94;;;-2.10;81.50
24486;BME280;13449;49.374;8.584;2022-12-18T13:02:13;101893.75;;;-2.02;82.11
24486;BME280;13449;49.374;8.584;2022-12-18T13:04:51;101889.88;;;-1.95;82.50
24486;BME280;13449;49.374;8.584;2022-12-18T13:07:51;101896.16;;;-1.96;81.51
24486;BME280;13449;49.374;8.584;2022-12-18T13:10:26;101866.66;;;-1.95;82.41
24486;BME280;13449;49.374;8.584;2022-12-18T13:12:58;101871.03;;;-1.92;82.30
24486;BME280;13449;49.374;8.584;2022-12-18T13:15:47;101864.81;;;-1.92;81.22
24486;BME280;13449;49.374;8.584;2022-12-18T13:18:21;101856.41;;;-1.85;81.45
24486;BME280;13449;49.374;8.584;2022-12-18T13:23:32;101852.81;;;-1.84;81.56
24486;BME280;13449;49.374;8.584;2022-12-18T13:34:27;101858.16;;;-1.84;81.49
24486;BME280;13449;49.374;8.584;2022-12-18T13:40:02;101845.50;;;-1.80;81.30
24486;BME280;13449;49.374;8.584;2022-12-18T13:45:43;101832.16;;;-1.80;81.72
24486;BME280;13449;49.374;8.584;2022-12-18T13:48:21;101829.59;;;-1.83;82.00
24486;BME280;13449;49.374;8.584;2022-12-18T13:50:52;101825.22;;;-1.84;81.82
24486;BME280;13449;49.374;8.584;2022-12-18T13:53:23;101819.88;;;-1.84;81.97
24486;BME280;13449;49.374;8.584;2022-12-18T13:55:51;101835.09;;;-1.86;82.04
24486;BME280;13449;49.374;8.584;2022-12-18T13:58:18;101829.91;;;-1.89;82.43
24486;BME280;13449;49.374;8.584;2022-12-18T14:00:49;101826.47;;;-1.91;82.38
24486;BME280;13449;49.374;8.584;2022-12-18T14:03:22;101834.38;;;-1.90;82.24
24486;BME280;13449;49.374;8.584;2022-12-18T14:05:55;101832.56;;;-1.89;82.07
24486;BME280;13449;49.374;8.584;2022-12-18T14:08:32;101832.56;;;-1.89;82.62
24486;BME280;13449;49.374;8.584;2022-12-18T14:11:01;101841.53;;;-1.90;82.20
24486;BME280;13449;49.374;8.584;2022-12-18T14:13:32;101846.00;;;-1.91;82.43
24486;BME280;13449;49.374;8.584;2022-12-18T14:16:01;101841.53;;;-1.90;82.52
24486;BME280;13449;49.374;8.584;2022-12-18T14:18:46;101837.16;;;-1.91;82.64
24486;BME280;13449;49.374;8.584;2022-12-18T14:21:22;101830.06;;;-1.92;82.74
24486;BME280;13449;49.374;8.584;2022-12-18T14:24:05;101831.00;;;-1.93;82.97
24486;BME280;13449;49.374;8.584;2022-12-18T14:26:32;101833.66;;;-1.93;82.30
24486;BME280;13449;49.374;8.584;2022-12-18T14:29:17;101831.09;;;-1.95;83.08